Terminal Aerodrome Forecast
Issued by NWS

Home | Current Version | Previous Version | Text Only | Print | Product List | Glossary On
Versions: 1 2 3 4 5 6 7 8 9 10 11 12 13 14 15 16 17 18 19 20 21 22 23 24 25 26
000
FTUS41 KBOX 241132
TAFBED
TAF
KBED 241132Z 2412/2512 15010G19KT 2SM RA BR OVC010 WS020/17045KT
     FM241400 17013G27KT P6SM OVC010
     FM250100 20012G24KT P6SM BKN250
     FM250600 22009KT P6SM BKN250=

USA.gov is the U.S. government's official web portal to all federal, state and local government web resources and services.